Tiempo atmosférico en la estación meteorológica de Zumaia, Gipuzkoa (28 m.)



Fecha
DESCASC
Temp. máxima en grados centígrados (hora)
DESCASC
Temp. mínima en grados centígrados (hora)
DESCASC
Temp. media en grados centígrados
DESCASC
Racha de viento máxima en m/sg (hora)
DESCASC
Velocidad máxima media en intervalos de 10 minutos(hora)
DESCASC
Precipitaciones diarias en mm
DESCASC
Precipitaciones de 00:00 a 06:00 en mm
DESCASC
Precipitaciones de 06:00 a 12:00 en mm
DESCASC
Precipitaciones de 12:00 a 18:00 en mm
DESCASC
Precipitaciones de 18:00 a 24:00 en mm
DESCASC
13-02-2020 19.5 (13:00) 13.1 (23:50) 16.3 14.44 (17:00) 10 (17:00) 0 0 0 0 0
12-02-2020 14.4 (23:59) 8.6 (08:20) 11.5 12.22 (23:30) 6.94 (23:59) 0.2 0 0 0.2 0
11-02-2020 14.4 (14:10) 10.2 (23:50) 12.3 13.33 (10:30) 7.78 (16:20) 1.9 0 0.3 0.4 1.2
10-02-2020 18.7 (02:10) 11.7 (00:00) 15.2 15.28 (02:10) 9.17 (02:10) 0 0 0 0 0
09-02-2020 19.4 (15:30) 9.8 (00:00) 14.6 18.61 (15:20) 11.67 (15:10) 0 0 0 0 0
08-02-2020 16.2 (11:30) 10.3 (00:00) 13.3 11.39 (13:10) 8.33 (13:10) 1.4 0 0 1.4 0
07-02-2020 21.7 (15:30) 12.2 (00:00) 17 14.72 (11:10) 9.17 (11:00) 0 0 0 0 0
06-02-2020 20.5 (15:30) 3.2 (00:00) 11.9 15.28 (11:50) 9.17 (11:30) 0 0 0 0 0
05-02-2020 13.6 (13:20) 4.8 (00:00) 9.2 9.72 (14:50) 5.83 (00:10) 0 0 0 0 0
04-02-2020 16 (02:00) 10.8 (00:00) 13.4 12.22 (02:40) 8.06 (02:40) 3 0 2.6 0.4 0
03-02-2020 27.4 (15:10) 13.6 (23:59) 20.5 8.61 (14:10) 5 (14:00) 0 0 0 0 0
02-02-2020 25.6 (14:30) 12.9 (00:00) 19.3 12.78 (04:50) 8.06 (05:40) 0 0 0 0 0
01-02-2020 19.9 (01:40) 12.5 (00:00) 16.2 13.33 (01:20) 6.39 (01:20) 0 0 0 0 0
31-01-2020 20.6 (17:30) 12.4 (00:00) 16.5 13.61 (22:50) 8.89 (22:50) 0.1 0 0 0.1 0
30-01-2020 21.5 (13:00) 14.4 (00:00) 17.9 11.94 (08:30) 7.22 (08:40) 2.5 2.2 0 0.2 0.1
29-01-2020 18.1 (17:20) 8.1 (00:00) 13.1 9.44 (23:59) 5.28 (23:50) 1.6 0 0 0 1.6
28-01-2020 19.3 (14:20) 9.1 (00:00) 14.2 15.83 (03:10) 10.28 (03:20) 0.3 0.3 0 0 0
27-01-2020 17.1 (20:30) 11.1 (00:00) 14.1 18.06 (10:00) 11.39 (10:30) 0 0 0 0 0
26-01-2020 16.7 (13:50) 7.6 (00:00) 12.2 9.72 (23:10) 5.83 (23:10) 0.4 0.3 0.1 0 0
25-01-2020 17.4 (12:30) 10.3 (00:00) 13.8 13.06 (09:10) 6.67 (11:50) 2.3 0 0 0 2.3
24-01-2020 16.8 (15:20) 11.4 (00:00) 14.1 16.39 (04:30) 9.17 (05:00) 0 0 0 0 0
23-01-2020 12.1 (22:30) 6.5 (00:00) 9.3 16.11 (23:50) 8.61 (23:20) 1.1 0 1 0.1 0
22-01-2020 12.7 (15:00) 6.6 (00:00) 9.6 5.28 (02:30) 2.5 (02:30) 0 0 0 0 0
21-01-2020 7.1 (23:30) 1.9 (00:00) 4.5 6.11 (07:10) 3.33 (07:20) 0 0 0 0 0
20-01-2020 8 (00:20) 3.4 (00:00) 5.7 15.83 (01:40) 7.5 (00:30) 0 0 0 0 0
19-01-2020 10.8 (02:10) 7.4 (00:00) 9.1 19.72 (21:20) 13.61 (19:50) 2.2 2.2 0 0 0
18-01-2020 17.9 (15:00) 6.9 (00:00) 12.4 16.67 (16:30) 7.78 (17:30) 4.7 0 0 0 4.7

Gráficas

Temp. máximas Temp. mínimas Temp. medias Precipitaciones Rachas de viento máximas Velocidades máximas media en intervalos de 10 minutos

Datos horarios

Fecha y hora oficial Temperatura (ºC) Velocidad del viento (km/h) Dirección del viento Racha (km/h) Dirección de racha Precipitación (mm) Presión (hPa) Tendencia (hPa) Humedad (%)
2020-02-16 23:00:00 19.3 36 Sur 67 Sudoeste 0 -- -- 46
2020-02-16 22:00:00 19.7 40 Sur 78 Sudoeste 0 -- -- 45
2020-02-16 21:00:00 20.2 46 Sur 82 Sudoeste 0 -- -- 45
2020-02-16 20:00:00 20.5 37 Sudoeste 63 Sudoeste 0 -- -- 44
2020-02-16 19:00:00 20.6 14 Sudoeste 60 Sudoeste 0 -- -- 42
2020-02-16 18:00:00 21 32 Sudoeste 69 Sudoeste 0 -- -- 40
2020-02-16 17:00:00 21.4 35 Sur 64 Sudoeste 0 -- -- 38
2020-02-16 16:00:00 22.9 38 Sudoeste 78 Sur 0 -- -- 34
2020-02-16 15:00:00 23.5 35 Sudoeste 64 Sudoeste 0 -- -- 34
2020-02-16 14:00:00 23.8 24 Sudoeste 90 Sudoeste 0 -- -- 33
2020-02-16 13:00:00 20.9 58 Sudoeste 91 Sudoeste 0 -- -- 37
2020-02-16 12:00:00 21.3 51 Sudoeste 86 Sudoeste 0 -- -- 37
2020-02-16 11:00:00 20.9 55 Sur 87 Sudoeste 0 -- -- 38
2020-02-16 10:00:00 19.4 42 Sur 83 Sudoeste 0 -- -- 40
2020-02-16 09:00:00 18.6 46 Sur 82 Sudoeste 0 -- -- 42
2020-02-16 08:00:00 18.6 44 Sur 79 Sudoeste 0 -- -- 42
2020-02-16 07:00:00 18.7 42 Sur 82 Sudoeste 0 -- -- 43
2020-02-16 06:00:00 18.3 28 Sur 54 Sur 0 -- -- 45
2020-02-16 05:00:00 18.7 19 Sur 54 Sudoeste 0 -- -- 44
2020-02-16 04:00:00 18.3 25 Sur 67 Sudoeste 0 -- -- 45
2020-02-16 03:00:00 18.8 41 Sur 69 Sudoeste 0 -- -- 46
2020-02-16 02:00:00 19 37 Sudoeste 68 Sudoeste 0 -- -- 45
2020-02-16 01:00:00 19.1 39 Sudoeste 73 Sur 0 -- -- 43
2020-02-16 00:00:00 18.8 37 Sur 67 Sudoeste 0 -- -- 42
2020-02-15 23:00:00 18.7 32 Sur 58 Sur 0 -- -- 42
2020-02-15 22:00:00 19.1 41 Sur 62 Sur 0 -- -- 42
2020-02-15 21:00:00 19.2 31 Sur 51 Sur 0 -- -- 43
2020-02-15 20:00:00 19.4 35 Sur 50 Sur 0 -- -- 43
2020-02-15 19:00:00 19.5 26 Sur 46 Sudoeste 0 -- -- 43
2020-02-15 18:00:00 20 18 Sudoeste 54 Sudoeste 0 -- -- 42
2020-02-15 17:00:00 20.2 19 Sudoeste 41 Sudoeste 0 -- -- 42
2020-02-15 16:00:00 20.8 22 Sudoeste 40 Sudoeste 0 -- -- 42
2020-02-15 15:00:00 21.3 13 Sudoeste 42 Sur 0 -- -- 41
2020-02-15 14:00:00 21.4 24 Sudoeste 46 Sur 0 -- -- 41
2020-02-15 13:00:00 21.1 19 Sudoeste 42 Sudoeste 0 -- -- 44
2020-02-15 12:00:00 19.8 17 Sudoeste 32 Sudoeste 0 -- -- 49
2020-02-15 11:00:00 17.4 4 Oeste 23 Sur 0 -- -- 54
2020-02-15 10:00:00 15.4 8 Sur 28 Sur 0 -- -- 69
2020-02-15 09:00:00 10.1 8 Sur 13 Sudoeste 0 -- -- 87
2020-02-15 08:00:00 10.2 0 Calma 10 Noroeste 0 -- -- 88
2020-02-15 07:00:00 10.1 4 Sur 20 Sudeste 0 -- -- 91
2020-02-15 06:00:00 8.2 7 Sur 17 Sudoeste 0 -- -- 92
2020-02-15 05:00:00 8.1 10 Sur 19 Sur 0 -- -- 91
2020-02-15 04:00:00 8.5 14 Sur 21 Sudoeste 0 -- -- 91
2020-02-15 03:00:00 8.6 13 Sur 17 Sur 0 -- -- 91
2020-02-15 02:00:00 8.7 13 Sur 17 Sur 0 -- -- 91
2020-02-15 01:00:00 8.9 15 Sur 18 Sur 0 -- -- 92
2020-02-15 00:00:00 8.8 13 Sur 15 Sur 0 -- -- 91
2020-02-14 23:00:00 9.2 12 Sur 15 Sur 0 -- -- 89
2020-02-14 22:00:00 9.7 12 Sur 16 Sur 0 -- -- 86
2020-02-14 21:00:00 10.4 9 Sur 12 Sur 0 -- -- 81
2020-02-14 20:00:00 11.8 4 Sur 7 Este 0 -- -- 75
2020-02-14 19:00:00 12.7 2 Sudeste 16 Sudeste 0 -- -- 72
2020-02-14 18:00:00 14.6 10 Este 20 Este 0 -- -- 65
2020-02-14 17:00:00 15.7 12 Este 21 Este 0 -- -- 64
2020-02-14 16:00:00 17.5 10 Este 25 Este 0 -- -- 61
2020-02-14 15:00:00 17.6 17 Este 25 Este 0 -- -- 60
2020-02-14 14:00:00 17.9 10 Este 19 Este 0 -- -- 67
2020-02-14 13:00:00 16 8 Nordeste 23 Nordeste 0 -- -- 75
2020-02-14 12:00:00 16.2 8 Nordeste 11 Nordeste 0 -- -- 78
2020-02-14 11:00:00 13.5 9 Sur 12 Sur 0 -- -- 87
2020-02-14 10:00:00 12.4 9 Sur 13 Sur 0 -- -- 92
2020-02-14 09:00:00 11.1 9 Sur 12 Sur 0 -- -- 94
2020-02-14 08:00:00 10.7 9 Sur 12 Sur 0 -- -- 92
2020-02-14 07:00:00 11.1 8 Sur 8 Sur 0 -- -- 90
2020-02-14 06:00:00 12 5 Sur 9 Sur 0 -- -- 89
2020-02-14 05:00:00 12.3 5 Sur 9 Sudoeste 0 -- -- 88
2020-02-14 04:00:00 12.4 4 Sur 10 Sur 0 -- -- 88
2020-02-14 03:00:00 12.4 6 Sur 12 Sur 0 -- -- 87
2020-02-14 02:00:00 12.5 8 Sur 11 Sur 0 -- -- 85
2020-02-14 01:00:00 12.9 9 Sur 14 Sur 0 -- -- 82
2020-02-14 00:00:00 13.2 4 Noroeste 14 Noroeste 0 -- -- 81
2020-02-13 23:00:00 13.3 9 Noroeste 23 Noroeste 0 -- -- 81
2020-02-13 22:00:00 13.4 12 Noroeste 27 Noroeste 0 -- -- 81
2020-02-13 21:00:00 13.5 13 Noroeste 34 Noroeste 0 -- -- 81
2020-02-13 20:00:00 13.4 22 Noroeste 42 Noroeste 0 -- -- 85
2020-02-13 19:00:00 13.5 29 Noroeste 39 Noroeste 0 -- -- 87
2020-02-13 18:00:00 14.4 25 Noroeste 50 Noroeste 0 -- -- 79
2020-02-13 17:00:00 15.7 36 Noroeste 52 Noroeste 0 -- -- 71
2020-02-13 16:00:00 16.7 10 Noroeste 23 Noroeste 0 -- -- 67
2020-02-13 15:00:00 16 12 Noroeste 24 Noroeste 0 -- -- 67
2020-02-13 14:00:00 17.4 8 Norte 16 Norte 0 -- -- 61
2020-02-13 13:00:00 19.5 6 Noroeste 15 Noroeste 0 -- -- 55
2020-02-13 12:00:00 18.2 8 Sudoeste 31 Sudoeste 0 -- -- 57
2020-02-13 11:00:00 18 15 Sur 23 Sudoeste 0 -- -- 59
2020-02-13 10:00:00 15.8 9 Sur 16 Sur 0 -- -- 67
2020-02-13 09:00:00 15 2 Sudeste 12 Noroeste 0 -- -- 69
2020-02-13 08:00:00 14.6 7 Sur 18 Sudoeste 0 -- -- 68
2020-02-13 07:00:00 14.7 6 Sudoeste 22 Sur 0 -- -- 65
2020-02-13 06:00:00 14.8 17 Sur 27 Sur 0 -- -- 63
2020-02-13 05:00:00 14.8 13 Sur 37 Sur 0 -- -- 62
2020-02-13 04:00:00 15.1 25 Sur 47 Sur 0 -- -- 61
2020-02-13 03:00:00 15.3 27 Sur 44 Sudoeste 0 -- -- 61
2020-02-13 02:00:00 15.2 22 Sur 45 Sur 0 -- -- 62
2020-02-13 01:00:00 15 24 Sur 39 Sur 0 -- -- 64
2020-02-13 00:00:00 14.4 25 Sur 44 Sur 0 -- -- 69
2020-02-12 23:00:00 11.2 5 Sur 17 Sudoeste 0 -- -- 88
2020-02-12 22:00:00 9.7 4 Sur 9 Sur 0 -- -- 94
2020-02-12 21:00:00 9.7 5 Sur 8 Sur 0 -- -- 92
2020-02-12 20:00:00 10.4 5 Sur 17 Sur 0 -- -- 91
2020-02-12 19:00:00 11.4 0 Calma 9 Este 0 -- -- 85
2020-02-12 18:00:00 12.4 0 Calma 14 Nordeste 0 -- -- 81
2020-02-12 17:00:00 13.5 6 Nordeste 21 Norte 0 -- -- 81
2020-02-12 16:00:00 13 12 Nordeste 19 Nordeste 0 -- -- 80
2020-02-12 15:00:00 13.8 12 Nordeste 18 Nordeste 0 -- -- 80
2020-02-12 14:00:00 12.8 12 Nordeste 19 Nordeste 0 -- -- 82
2020-02-12 13:00:00 13.2 13 Nordeste 19 Nordeste 0.2 -- -- 81
2020-02-12 12:00:00 12.6 0 Calma 7 Este 0 -- -- 95
2020-02-12 11:00:00 11.5 0 Calma 9 Sudoeste 0 -- -- 99
2020-02-12 10:00:00 10 8 Sudoeste 10 Sudoeste 0 -- -- 99
2020-02-12 09:00:00 9 0 Calma -- -- 0 -- -- 99
2020-02-12 08:00:00 8.7 0 Calma -- -- 0 -- -- 99
2020-02-12 07:00:00 9.6 0 Calma -- -- 0 -- -- 99
2020-02-12 06:00:00 10 0 Calma -- -- 0 -- -- 99
2020-02-12 05:00:00 9.9 0 Calma -- -- 0 -- -- 99
2020-02-12 04:00:00 10 0 Calma -- -- 0 -- -- 99
2020-02-12 03:00:00 10 0 Calma -- -- 0 -- -- 99
2020-02-12 02:00:00 10 0 Calma -- -- 0 -- -- 99
2020-02-12 01:00:00 10 0 Calma 8 Sur 0 -- -- 99
2020-02-12 00:00:00 10.2 0 Calma 6 Sur 0 -- -- 99
2020-02-11 23:00:00 10.4 4 Sur 9 Sur 0 -- -- 99
2020-02-11 22:00:00 10.8 0 Calma 9 Sur 0 -- -- 99
2020-02-11 21:00:00 11.1 0 Calma 24 Noroeste 0.1 -- -- 98
2020-02-11 20:00:00 11.2 17 Noroeste 28 Noroeste 1 -- -- 98
2020-02-11 19:00:00 11.8 19 Noroeste 32 Noroeste 0.1 -- -- 96
2020-02-11 18:00:00 12 7 Noroeste 32 Noroeste 0 -- -- 94
2020-02-11 17:00:00 12.5 14 Noroeste 34 Noroeste 0 -- -- 93
2020-02-11 16:00:00 13.1 23 Noroeste 39 Noroeste 0 -- -- 89
2020-02-11 15:00:00 13.4 9 Noroeste 21 Noroeste 0.1 -- -- 92
2020-02-11 14:00:00 14.1 0 Calma 15 Noroeste 0.2 -- -- 92
2020-02-11 13:00:00 13.7 4 Noroeste 14 Noroeste 0.1 -- -- 90
2020-02-11 12:00:00 13.6 0 Calma 15 Noroeste 0.1 -- -- 89
2020-02-11 11:00:00 13.1 7 Noroeste 48 Noroeste 0 -- -- 90
2020-02-11 10:00:00 12.7 9 Noroeste 27 Noroeste 0.1 -- -- 91
2020-02-11 09:00:00 12.9 6 Oeste 24 Noroeste 0.1 -- -- 87
2020-02-11 08:00:00 13.2 12 Noroeste 26 Oeste 0 -- -- 86
2020-02-11 07:00:00 13.4 7 Noroeste 21 Noroeste 0 -- -- 88
2020-02-11 06:00:00 13.2 8 Noroeste 26 Noroeste 0 -- -- 91
2020-02-11 05:00:00 13.3 16 Noroeste 32 Noroeste 0 -- -- 92
2020-02-11 04:00:00 13.2 5 Noroeste 15 Noroeste 0 -- -- 94
2020-02-11 03:00:00 13.3 5 Norte 15 Nordeste 0 -- -- 94
2020-02-11 02:00:00 13.5 4 Sudoeste 9 Sur 0 -- -- 94
2020-02-11 01:00:00 13.4 3 Sur 7 Sur 0 -- -- 95
2020-02-11 00:00:00 13.4 5 Sur 10 Sur 0 -- -- 95
2020-02-10 23:00:00 13.5 6 Sur 9 Sur 0 -- -- 95
2020-02-10 22:00:00 13.5 7 Sur 11 Sur 0 -- -- 95
2020-02-10 21:00:00 13.6 6 Sur 10 Sur 0 -- -- 94
2020-02-10 20:00:00 13.7 0 Calma 17 Noroeste 0 -- -- 93
2020-02-10 19:00:00 13.5 10 Noroeste 28 Noroeste 0 -- -- 94
2020-02-10 18:00:00 13.9 4 Noroeste 14 Noroeste 0 -- -- 91
2020-02-10 17:00:00 14.4 4 Noroeste 12 Noroeste 0 -- -- 90
2020-02-10 16:00:00 14.9 8 Noroeste 14 Noroeste 0 -- -- 87
2020-02-10 15:00:00 15.9 12 Norte 18 Norte 0 -- -- 81
2020-02-10 14:00:00 17 9 Norte 14 Norte 0 -- -- 77
2020-02-10 13:00:00 17.6 3 Norte 15 Nordeste 0 -- -- 78
2020-02-10 12:00:00 16.6 12 Nordeste 18 Norte 0 -- -- 74
2020-02-10 11:00:00 15.9 0 Calma 10 Noroeste 0 -- -- 80
2020-02-10 10:00:00 15.5 0 Calma 13 Sudoeste 0 -- -- 82
2020-02-10 09:00:00 12.1 11 Sudoeste 15 Sudoeste 0 -- -- 90
2020-02-10 08:00:00 12.4 9 Sudoeste 14 Sudoeste 0 -- -- 89
2020-02-10 07:00:00 13.2 6 Sudoeste 9 Sudoeste 0 -- -- 85
2020-02-10 06:00:00 14.5 0 Calma 17 Oeste 0 -- -- 82
2020-02-10 05:00:00 16 7 Oeste 25 Noroeste 0 -- -- 74
2020-02-10 04:00:00 17.8 9 Sudoeste 39 Sudoeste 0 -- -- 58
2020-02-10 03:00:00 18.2 19 Sur 55 Sur 0 -- -- 56
2020-02-10 02:00:00 18.3 30 Sur 47 Sur 0 -- -- 55
2020-02-10 01:00:00 18.3 30 Sur 46 Sur 0 -- -- 55
2020-02-10 00:00:00 17.8 31 Sur 59 Sudoeste 0 -- -- 55
2020-02-09 23:00:00 18.3 35 Sur 58 Sur 0 -- -- 54
2020-02-09 22:00:00 18.1 33 Sur 53 Sur 0 -- -- 54
2020-02-09 21:00:00 18.4 28 Sur 48 Sur 0 -- -- 55
2020-02-09 20:00:00 18.4 35 Sur 55 Sur 0 -- -- 55
2020-02-09 19:00:00 17.9 35 Sur 55 Sur 0 -- -- 54
2020-02-09 18:00:00 17.8 32 Sur 56 Sur 0 -- -- 53
2020-02-09 17:00:00 18.1 31 Sur 55 Sur 0 -- -- 52
2020-02-09 16:00:00 19 36 Sur 67 Sur 0 -- -- 50
2020-02-09 15:00:00 18.2 42 Sur 64 Sur 0 -- -- 52
2020-02-09 14:00:00 18.7 34 Sur 57 Sur 0 -- -- 51
2020-02-09 13:00:00 17.7 35 Sur 54 Sur 0 -- -- 52
2020-02-09 12:00:00 17.1 32 Sur 61 Sur 0 -- -- 53
2020-02-09 11:00:00 16.7 33 Sur 60 Sur 0 -- -- 54
2020-02-09 10:00:00 16.1 28 Sur 53 Sur 0 -- -- 55
2020-02-09 09:00:00 14.4 21 Sur 38 Sudoeste 0 -- -- 58
2020-02-09 08:00:00 14 18 Sur 33 Sudoeste 0 -- -- 59
2020-02-09 07:00:00 14.2 19 Sur 49 Sur 0 -- -- 60
2020-02-09 06:00:00 13.9 27 Sur 47 Sur 0 -- -- 63
2020-02-09 05:00:00 13.2 27 Sur 45 Sur 0 -- -- 70
2020-02-09 04:00:00 11 2 Sur 16 Sur 0 -- -- 84
2020-02-09 03:00:00 10.6 0 Calma -- -- 0 -- -- 87
2020-02-09 02:00:00 10.7 0 Calma 0 Calma 0 -- -- 87
2020-02-09 01:00:00 10.7 0 Calma 18 Sur 0 -- -- 88
2020-02-09 00:00:00 10.5 13 Sur 18 Sur 0 -- -- 90
2020-02-08 23:00:00 10.9 4 Sur 15 Sur 0 -- -- 92
2020-02-08 22:00:00 11.7 0 Calma 5 Sur 0 -- -- 92
2020-02-08 21:00:00 12.2 0 Calma 5 Sur 0 -- -- 89
2020-02-08 20:00:00 12.3 0 Calma 23 Noroeste 0 -- -- 87
2020-02-08 19:00:00 12.3 15 Noroeste 25 Noroeste 0 -- -- 90
2020-02-08 18:00:00 12.2 14 Noroeste 32 Noroeste 0 -- -- 90
2020-02-08 17:00:00 12 17 Noroeste 30 Noroeste 0 -- -- 92
2020-02-08 16:00:00 12.5 0 Calma 5 Sur 0 -- -- 94
2020-02-08 15:00:00 12.4 0 Calma 5 Sur 0.1 -- -- 94
2020-02-08 14:00:00 12.3 0 Calma 41 Noroeste 1.3 -- -- 93
2020-02-08 13:00:00 13.7 21 Noroeste 31 Noroeste 0 -- -- 87
2020-02-08 12:00:00 15 16 Noroeste 28 Noroeste 0 -- -- 72
2020-02-08 11:00:00 15.7 3 Oeste 28 Noroeste 0 -- -- 65
2020-02-08 10:00:00 15.9 5 Oeste 22 Sudeste 0 -- -- 61
2020-02-08 09:00:00 14.7 13 Sudeste 20 Sudeste 0 -- -- 63
2020-02-08 08:00:00 14.7 10 Sur 19 Sur 0 -- -- 63
2020-02-08 07:00:00 13.9 13 Sur 25 Sudoeste 0 -- -- 62
2020-02-08 06:00:00 14.2 8 Sudoeste 28 Sudoeste 0 -- -- 62
2020-02-08 05:00:00 13.8 10 Sudoeste 24 Sur 0 -- -- 64
2020-02-08 04:00:00 13.7 6 Sur 25 Sur 0 -- -- 65
2020-02-08 03:00:00 13 13 Sur 22 Sur 0 -- -- 66
2020-02-08 02:00:00 12.4 11 Sur 19 Sur 0 -- -- 69
2020-02-08 01:00:00 12.3 13 Sur 21 Sudoeste 0 -- -- 67
2020-02-08 00:00:00 12.6 9 Sur 15 Sur 0 -- -- 67
2020-02-07 23:00:00 13.6 5 Sudoeste 18 Sudoeste 0 -- -- 65
2020-02-07 22:00:00 13.1 10 Sur 17 Sur 0 -- -- 67
2020-02-07 21:00:00 13.3 9 Sur 14 Sur 0 -- -- 64
2020-02-07 20:00:00 14.4 3 Sur 8 Noroeste 0 -- -- 62
2020-02-07 19:00:00 14.7 3 Sudeste 14 Sudoeste 0 -- -- 57
2020-02-07 18:00:00 17 0 Calma 13 Sudoeste 0 -- -- 52
2020-02-07 17:00:00 17 4 Nordeste 21 Sudoeste 0 -- -- 52
2020-02-07 16:00:00 19.8 9 Sudoeste 23 Sudoeste 0 -- -- 44
2020-02-07 15:00:00 20.5 15 Sur 29 Sur 0 -- -- 44
2020-02-07 14:00:00 20 21 Sur 36 Sur 0 -- -- 45
2020-02-07 13:00:00 19.8 18 Sudoeste 39 Sudoeste 0 -- -- 46
2020-02-07 12:00:00 18.1 24 Sudoeste 53 Sur 0 -- -- 47
2020-02-07 11:00:00 15.9 33 Sur 50 Sur 0 -- -- 50
2020-02-07 10:00:00 14.2 22 Sur 42 Sur 0 -- -- 52
2020-02-07 09:00:00 13.2 15 Sur 37 Sur 0 -- -- 51
2020-02-07 08:00:00 13.7 22 Sur 45 Sur 0 -- -- 50
2020-02-07 07:00:00 13.8 17 Sur 43 Sudeste 0 -- -- 50
2020-02-07 06:00:00 13.8 22 Sur 48 Sur 0 -- -- 50
2020-02-07 05:00:00 14.2 27 Sur 47 Sur 0 -- -- 50
2020-02-07 04:00:00 13.9 15 Sur 48 Sudoeste 0 -- -- 49
2020-02-07 03:00:00 14.5 23 Sur 51 Sur 0 -- -- 47
2020-02-07 02:00:00 14.4 27 Sur 43 Sur 0 -- -- 45
2020-02-07 01:00:00 14.9 26 Sur 45 Sur 0 -- -- 42
2020-02-07 00:00:00 14.9 23 Sur 40 Sur 0 -- -- 41
2020-02-06 23:00:00 15.2 25 Sur 40 Sur 0 -- -- 42
2020-02-06 22:00:00 14.8 19 Sur 44 Sur 0 -- -- 41
2020-02-06 21:00:00 14.9 19 Sur 36 Sur 0 -- -- 39
2020-02-06 20:00:00 15.4 23 Sur 35 Sur 0 -- -- 39
2020-02-06 19:00:00 15.6 17 Sur 35 Sur 0 -- -- 38
2020-02-06 18:00:00 17.2 18 Sur 40 Sur 0 -- -- 37
2020-02-06 17:00:00 18.4 26 Sur 41 Sur 0 -- -- 38
2020-02-06 16:00:00 19.8 22 Sur 44 Sur 0 -- -- 36
2020-02-06 15:00:00 19.5 27 Sur 50 Sur 0 -- -- 37
2020-02-06 14:00:00 20.1 25 Sur 49 Sur 0 -- -- 36
2020-02-06 13:00:00 18.6 23 Sur 48 Sudoeste 0 -- -- 38
2020-02-06 12:00:00 17.7 27 Sur 55 Sur 0 -- -- 40
2020-02-06 11:00:00 15.8 28 Sur 47 Sudoeste 0 -- -- 44
2020-02-06 10:00:00 14.3 17 Sur 30 Sur -- -- -- 50
2020-02-06 09:00:00 10.6 21 Sur 31 Sur 0 -- -- 60
2020-02-06 08:00:00 8.2 0 Calma 26 Sur 0 -- -- 75
2020-02-06 07:00:00 7.4 0 Calma 18 Sur 0 -- -- 91
2020-02-06 06:00:00 3.4 12 Sudoeste 18 Sudoeste 0 -- -- 95
2020-02-06 05:00:00 3.6 10 Sur 18 Sur 0 -- -- 94
2020-02-06 04:00:00 3.9 12 Sur 19 Sur 0 -- -- 94
2020-02-06 03:00:00 4.1 14 Sur 18 Sur 0 -- -- 94
2020-02-06 02:00:00 4.4 11 Sur 17 Sudoeste 0 -- -- 93
2020-02-06 01:00:00 4.6 12 Sur 15 Sur 0 -- -- 92
2020-02-06 00:00:00 4.8 11 Sur 15 Sur 0 -- -- 91
2020-02-05 23:00:00 5.2 12 Sur 14 Sur 0 -- -- 88
2020-02-05 22:00:00 6 12 Sur 15 Sur 0 -- -- 84
2020-02-05 21:00:00 7.4 9 Sur 15 Sudeste 0 -- -- 73
2020-02-05 20:00:00 9.3 12 Sudeste 22 Sudeste 0 -- -- 64
2020-02-05 19:00:00 10.4 14 Este 29 Este 0 -- -- 62
2020-02-05 18:00:00 11.2 17 Este 30 Este 0 -- -- 61
2020-02-05 17:00:00 11.6 15 Este 34 Nordeste 0 -- -- 61
2020-02-05 16:00:00 12.7 13 Este 35 Nordeste 0 -- -- 58
2020-02-05 15:00:00 13 16 Este 35 Este 0 -- -- 59
2020-02-05 14:00:00 13 16 Nordeste 34 Nordeste 0 -- -- 61
2020-02-05 13:00:00 12.3 15 Nordeste 26 Nordeste 0 -- -- 63
2020-02-05 12:00:00 11.7 13 Nordeste 23 Nordeste 0 -- -- 68
2020-02-05 11:00:00 11 7 Nordeste 14 Nordeste 0 -- -- 77
2020-02-05 10:00:00 8.8 6 Sur 12 Sur 0 -- -- 92
2020-02-05 09:00:00 6.2 10 Sur 12 Sudoeste 0 -- -- 91
2020-02-05 08:00:00 6.8 8 Sur 13 Sur 0 -- -- 88
2020-02-05 07:00:00 7.6 9 Sur 14 Sudeste 0 -- -- 83
2020-02-05 06:00:00 8.4 8 Sudeste 14 Sudeste 0 -- -- 83
2020-02-05 05:00:00 9.5 6 Sur 9 Sur 0 -- -- 82
2020-02-05 04:00:00 9.6 6 Sur 16 Sur 0 -- -- 78
2020-02-05 03:00:00 10.5 8 Sudeste 22 Nordeste 0 -- -- 73
2020-02-05 02:00:00 11.1 11 Nordeste 31 Nordeste 0 -- -- 73
2020-02-05 01:00:00 11.4 17 Norte 34 Nordeste 0 -- -- 71
2020-02-05 00:00:00 11.7 22 Norte 34 Norte 0 -- -- 72
2020-02-04 23:00:00 11 15 Norte 24 Norte 0 -- -- 68
2020-02-04 22:00:00 11.4 16 Norte 30 Norte 0 -- -- 69
2020-02-04 21:00:00 11.5 20 Norte 27 Noroeste 0 -- -- 69
2020-02-04 20:00:00 11.6 16 Norte 33 Nordeste 0 -- -- 69
2020-02-04 19:00:00 11.7 18 Norte 36 Nordeste 0 -- -- 75
2020-02-04 18:00:00 11.7 17 Norte 28 Norte 0 -- -- 69
2020-02-04 12:00:00 11 6 Norte 36 Nordeste 0.5 -- -- 99
2020-02-04 11:00:00 11.3 23 Norte 35 Nordeste 0.5 -- -- 99
2020-02-04 10:00:00 11.8 18 Norte 29 Norte 1.1 -- -- 99
2020-02-04 09:00:00 12 4 Noroeste 28 Norte 0.3 -- -- 99
2020-02-04 08:00:00 13.2 21 Noroeste 40 Noroeste 0.2 -- -- 98
2020-02-04 07:00:00 13.9 5 Noroeste 24 Norte 0 -- -- 95
2020-02-04 06:00:00 14.1 0 Calma 18 Noroeste 0 -- -- 93
2020-02-04 05:00:00 14.5 3 Noroeste 21 Noroeste 0 -- -- 89
2020-02-04 04:00:00 14.7 2 Noroeste 33 Noroeste 0 -- -- 85
2020-02-04 03:00:00 15.2 24 Noroeste 44 Noroeste 0 -- -- 79
2020-02-04 02:00:00 15.8 22 Noroeste 33 Noroeste 0 -- -- 72
2020-02-04 01:00:00 12.9 11 Sudoeste 15 Sudoeste 0 -- -- 68
2020-02-04 00:00:00 13.6 10 Sur 14 Sur 0 -- -- 65
2020-02-03 23:00:00 14.6 10 Sur 15 Sudoeste 0 -- -- 61
2020-02-03 22:00:00 16.4 12 Sur 26 Noroeste 0 -- -- 54
2020-02-03 21:00:00 17.5 13 Noroeste 30 Noroeste 0 -- -- 55
2020-02-03 20:00:00 18.4 4 Noroeste 28 Noroeste 0 -- -- 53
2020-02-03 19:00:00 20.2 8 Sur 14 Sudoeste 0 -- -- 44
2020-02-03 18:00:00 24 0 Calma 18 Sudoeste 0 -- -- 35
2020-02-03 17:00:00 25.2 9 Sur 21 Sur 0 -- -- 34
2020-02-03 16:00:00 26.9 7 Sudoeste 23 Sudoeste 0 -- -- 33
2020-02-03 15:00:00 27.1 10 Sur 31 Sudoeste 0 -- -- 36
2020-02-03 14:00:00 26.3 18 Sudoeste 31 Sudoeste 0 -- -- 36
2020-02-03 13:00:00 25 10 Sudoeste 26 Sur 0 -- -- 40
2020-02-03 12:00:00 23.5 13 Sur 19 Sur 0 -- -- 45
2020-02-03 11:00:00 21.3 9 Sur 18 Sur 0 -- -- 53
2020-02-03 10:00:00 17.8 12 Sur 19 Sudoeste 0 -- -- 60
2020-02-03 09:00:00 15.9 15 Sur 21 Sudoeste 0 -- -- 62
2020-02-03 08:00:00 16 14 Sur 22 Sur 0 -- -- 61
2020-02-03 07:00:00 16.4 16 Sur 22 Sudoeste 0 -- -- 59
2020-02-03 06:00:00 16.7 16 Sur 21 Sur 0 -- -- 58
2020-02-03 05:00:00 17.2 15 Sur 26 Sur 0 -- -- 56
2020-02-03 04:00:00 17.7 16 Sur 26 Sur 0 -- -- 55
2020-02-03 03:00:00 17.9 13 Sur 26 Sur 0 -- -- 55
2020-02-03 02:00:00 18.2 17 Sur 23 Sur 0 -- -- 55
2020-02-03 01:00:00 18.2 15 Sur 23 Sur 0 -- -- 55
2020-02-03 00:00:00 19 12 Sur 28 Sur 0 -- -- 52
2020-02-02 23:00:00 19.6 13 Sur 29 Sur 0 -- -- 52
2020-02-02 22:00:00 20.2 22 Sur 32 Sur 0 -- -- 52
2020-02-02 21:00:00 20.1 19 Sur 32 Sur 0 -- -- 53
2020-02-02 20:00:00 19.7 16 Sur 24 Sur 0 -- -- 54
2020-02-02 19:00:00 20 12 Sur 23 Sur 0 -- -- 53
2020-02-02 18:00:00 21.2 13 Sur 25 Sur 0 -- -- 50
2020-02-02 17:00:00 22.4 13 Sur 27 Sudoeste 0 -- -- 47
2020-02-02 16:00:00 24.4 9 Sudoeste 40 Sudoeste 0 -- -- 44
2020-02-02 15:00:00 25.3 21 Sur 34 Sudoeste 0 -- -- 44
2020-02-02 14:00:00 24.9 20 Sur 36 Sur 0 -- -- 46
2020-02-02 13:00:00 24 17 Sur 31 Sur 0 -- -- 48
2020-02-02 12:00:00 22.8 17 Sur 35 Sur 0 -- -- 51
2020-02-02 11:00:00 21.9 22 Sur 36 Sur 0 -- -- 51
2020-02-02 10:00:00 20.7 14 Sur 35 Sur 0 -- -- 55
2020-02-02 09:00:00 18.8 24 Sur 41 Sur 0 -- -- 57
2020-02-02 08:00:00 18.9 24 Sur 40 Sudoeste 0 -- -- 57
2020-02-02 07:00:00 19.3 18 Sur 39 Sur 0 -- -- 55
2020-02-02 06:00:00 19.4 27 Sur 45 Sudoeste 0 -- -- 57
2020-02-02 05:00:00 18.9 24 Sur 46 Sur 0 -- -- 60
2020-02-02 04:00:00 18.7 17 Sur 27 Sur 0 -- -- 61
2020-02-02 03:00:00 17.4 12 Sur 21 Sur 0 -- -- 71
2020-02-02 02:00:00 16.3 0 Calma -- -- 0 -- -- 78
2020-02-02 01:00:00 14.3 0 Calma 12 Sudoeste 0 -- -- 94
2020-02-02 00:00:00 12.9 7 Sudoeste 12 Sudoeste 0 -- -- 96
2020-02-01 23:00:00 12.9 0 Calma 8 Sudoeste 0 -- -- 96
2020-02-01 22:00:00 12.7 0 Calma -- -- 0 -- -- 95
2020-02-01 21:00:00 13.2 0 Calma 5 Noroeste 0 -- -- 93
2020-02-01 20:00:00 14 0 Calma 10 Sudeste 0 -- -- 89
2020-02-01 19:00:00 14.7 3 Sudeste 14 Este 0 -- -- 86
2020-02-01 18:00:00 15.5 8 Este 17 Sudeste 0 -- -- 82
2020-02-01 17:00:00 16.6 8 Nordeste 18 Nordeste 0 -- -- 80
2020-02-01 16:00:00 18 5 Este 17 Nordeste 0 -- -- 79
2020-02-01 15:00:00 16.8 12 Nordeste 17 Nordeste 0 -- -- 81
2020-02-01 14:00:00 17.6 0 Calma 8 Nordeste 0 -- -- 80
2020-02-01 13:00:00 17 4 Nordeste 10 Norte 0 -- -- 80
2020-02-01 12:00:00 17.8 6 Nordeste 11 Nordeste 0 -- -- 78
2020-02-01 11:00:00 18.4 0 Calma 6 Nordeste 0 -- -- 78
2020-02-01 10:00:00 17.4 0 Calma 16 Noroeste 0 -- -- 80
2020-02-01 09:00:00 17 6 Noroeste 14 Oeste 0 -- -- 77
2020-02-01 08:00:00 17.5 9 Noroeste 18 Oeste 0 -- -- 72
2020-02-01 07:00:00 18.3 5 Sudoeste 15 Oeste 0 -- -- 69
2020-02-01 06:00:00 18.3 7 Sudoeste 29 Sudoeste 0 -- -- 69
2020-02-01 05:00:00 18.1 14 Sudoeste 32 Sudoeste 0 -- -- 68
2020-02-01 04:00:00 18 18 Sudoeste 31 Sudoeste 0 -- -- 68
2020-02-01 03:00:00 19 13 Sudoeste 37 Sudoeste 0 -- -- 62
2020-02-01 02:00:00 19.6 16 Sur 48 Sur 0 -- -- 60
2020-02-01 01:00:00 18.8 19 Sudoeste 35 Sudoeste 0 -- -- 60
2020-02-01 00:00:00 19.1 17 Sudoeste 41 Sur 0 -- -- 61
2020-01-31 23:00:00 18.7 26 Sudoeste 49 Sudoeste 0 -- -- 60
2020-01-31 22:00:00 17.8 19 Sur 32 Sur 0 -- -- 60
2020-01-31 21:00:00 17.6 20 Sur 31 Sudoeste 0 -- -- 60
2020-01-31 20:00:00 17.6 13 Sur 24 Sur 0 -- -- 63
2020-01-31 19:00:00 18.5 11 Sur 30 Sur 0 -- -- 60
2020-01-31 18:00:00 19.3 16 Sur 25 Sur 0 -- -- 57
2020-01-31 17:00:00 19.8 13 Sur 22 Sur 0 -- -- 60
2020-01-31 16:00:00 18.3 2 Nordeste 15 Este 0 -- -- 61
2020-01-31 15:00:00 19.8 13 Este 21 Este 0 -- -- 61
2020-01-31 14:00:00 18.5 12 Nordeste 19 Nordeste 0 -- -- 68
2020-01-31 13:00:00 15.6 6 Norte 18 Noroeste 0.1 -- -- 77
2020-01-31 12:00:00 15.8 6 Norte 13 Nordeste 0 -- -- 77
2020-01-31 11:00:00 16.6 0 Calma -- -- 0 -- -- 73
2020-01-31 10:00:00 15 0 Calma -- -- 0 -- -- 81
2020-01-31 09:00:00 13.1 0 Calma -- -- 0 -- -- 83
2020-01-31 08:00:00 12.6 0 Calma -- -- 0 -- -- 86
2020-01-31 07:00:00 13.3 0 Calma -- -- 0 -- -- 84
2020-01-31 06:00:00 14 0 Calma -- -- 0 -- -- 83
2020-01-31 05:00:00 14.9 0 Calma -- -- 0 -- -- 77
2020-01-31 04:00:00 15.3 0 Calma -- -- 0 -- -- 70
2020-01-31 03:00:00 15.4 0 Calma 10 Sudoeste 0 -- -- 69
2020-01-31 02:00:00 15.5 5 Sudoeste 14 Sur 0 -- -- 68
2020-01-31 01:00:00 15.8 4 Sudoeste 15 Sudoeste 0 -- -- 66
2020-01-31 00:00:00 16.1 11 Sur 15 Sur 0 -- -- 67
2020-01-30 23:00:00 15.8 3 Sur 18 Sur 0 -- -- 68
2020-01-30 22:00:00 15.5 10 Sur 21 Sur 0 -- -- 71
2020-01-30 21:00:00 15.3 9 Sur 17 Sur 0 -- -- 70
2020-01-30 20:00:00 16.3 6 Sudoeste 33 Sur 0.1 -- -- 67
2020-01-30 19:00:00 16.1 18 Sur 30 Sur 0 -- -- 67
2020-01-30 18:00:00 15.4 17 Sur 29 Sur 0.2 -- -- 72
2020-01-30 17:00:00 18 14 Sur 27 Sur 0 -- -- 54
2020-01-30 16:00:00 18.6 22 Sur 35 Sudoeste 0 -- -- 52
2020-01-30 15:00:00 19.1 23 Sur 38 Sur 0 -- -- 51
2020-01-30 14:00:00 19.8 22 Sur 38 Sudoeste 0 -- -- 49
2020-01-30 13:00:00 20.8 25 Sur 39 Sudoeste 0 -- -- 49
2020-01-30 12:00:00 20.4 15 Sudoeste 27 Sudoeste 0 -- -- 53
2020-01-30 11:00:00 17.6 10 Sudoeste 30 Sur 0 -- -- 61
2020-01-30 10:00:00 16.6 14 Sudoeste 32 Sudoeste 0 -- -- 60
2020-01-30 09:00:00 16.4 19 Sudoeste 43 Sudoeste 0 -- -- 60
2020-01-30 08:00:00 16.3 18 Sur 34 Sur 0 -- -- 68
2020-01-30 07:00:00 16.2 21 Sur 42 Sur 0 -- -- 72
2020-01-30 06:00:00 15.2 22 Sur 38 Sur 0.2 -- -- 84
2020-01-30 05:00:00 14.8 8 Sur 22 Sudoeste 1.1 -- -- 88
2020-01-30 04:00:00 15.8 11 Sur 27 Sur 0.3 -- -- 81
2020-01-30 03:00:00 16 14 Sur 37 Sur 0.2 -- -- 80
2020-01-30 02:00:00 15.4 23 Sur 36 Sur 0.4 -- -- 83
2020-01-30 01:00:00 16.1 22 Sur 37 Sur 0 -- -- 79
2020-01-30 00:00:00 15.8 19 Sur 34 Sur 0.2 -- -- 86
2020-01-29 23:00:00 14.4 0 Calma -- -- 0.6 -- -- 90
2020-01-29 22:00:00 15.1 0 Calma 11 Sur 0.3 -- -- 85
2020-01-29 21:00:00 14.9 5 Sur 13 Sur 0.2 -- -- 84
2020-01-29 20:00:00 15.4 7 Sudoeste 15 Sudoeste 0.2 -- -- 77
2020-01-29 19:00:00 16.1 5 Sur 19 Sudoeste 0.1 -- -- 72
2020-01-29 18:00:00 17.8 11 Sudoeste 28 Sudoeste 0 -- -- 61
2020-01-29 17:00:00 17.7 9 Sudoeste 21 Sudoeste 0 -- -- 67
2020-01-29 16:00:00 15.8 0 Calma 12 Noroeste 0 -- -- 83
2020-01-29 15:00:00 15.5 3 Noroeste 12 Oeste 0 -- -- 81
2020-01-29 14:00:00 15.4 0 Calma 8 Nordeste 0 -- -- 79
2020-01-29 13:00:00 14.8 5 Noroeste 12 Noroeste 0 -- -- 79
2020-01-29 12:00:00 13.9 0 Calma -- -- 0 -- -- 80
2020-01-29 11:00:00 12.4 0 Calma 14 Sur 0 -- -- 84
2020-01-29 10:00:00 10.7 8 Sur 12 Sur 0 -- -- 86
2020-01-29 09:00:00 9.9 7 Sur 13 Sur 0 -- -- 86
2020-01-29 08:00:00 9.2 9 Sur 13 Sur 0 -- -- 86
2020-01-29 07:00:00 9.2 9 Sur 13 Sur 0 -- -- 88
2020-01-29 06:00:00 9.1 8 Sur 14 Sur 0 -- -- 88
2020-01-29 05:00:00 8.8 9 Sur 14 Sur 0 -- -- 88
2020-01-29 04:00:00 8.5 11 Sur 15 Sur 0 -- -- 88
2020-01-29 03:00:00 8.6 10 Sur 14 Sur 0 -- -- 89
2020-01-29 02:00:00 8.1 8 Sur 12 Sur 0 -- -- 88
2020-01-29 01:00:00 8.7 9 Sur 13 Sur 0 -- -- 87
2020-01-29 00:00:00 9.1 8 Sur 13 Sur 0 -- -- 83
2020-01-28 23:00:00 10.4 8 Sur 10 Sur 0 -- -- 79
2020-01-28 22:00:00 11.1 0 Calma -- -- 0 -- -- 75
2020-01-28 21:00:00 11.4 0 Calma 8 Sur 0 -- -- 74
2020-01-28 20:00:00 12.1 0 Calma 15 Noroeste 0 -- -- 72
2020-01-28 19:00:00 12.8 0 Calma 24 Noroeste 0 -- -- 70
2020-01-28 18:00:00 13.2 16 Noroeste 37 Noroeste 0 -- -- 69
2020-01-28 17:00:00 13.8 30 Noroeste 44 Noroeste 0 -- -- 67
2020-01-28 16:00:00 15.9 27 Noroeste 43 Noroeste 0 -- -- 59
2020-01-28 15:00:00 16.4 21 Noroeste 36 Noroeste 0 -- -- 58
2020-01-28 14:00:00 18.6 8 Noroeste 26 Noroeste 0 -- -- 56
2020-01-28 13:00:00 16.7 7 Noroeste 23 Noroeste 0 -- -- 55
2020-01-28 12:00:00 15.5 5 Noroeste 17 Oeste 0 -- -- 59
2020-01-28 11:00:00 14.7 2 Oeste 13 Oeste 0 -- -- 67
2020-01-28 10:00:00 13.3 0 Calma 20 Sudoeste 0 -- -- 70
2020-01-28 09:00:00 12.6 0 Calma 19 Oeste 0 -- -- 71
2020-01-28 08:00:00 13.2 3 Noroeste 25 Oeste 0 -- -- 71
2020-01-28 07:00:00 12.9 3 Oeste 19 Oeste 0 -- -- 73
2020-01-28 06:00:00 12.3 2 Sudoeste 18 Oeste 0 -- -- 79
2020-01-28 05:00:00 12.1 4 Oeste 35 Oeste 0 -- -- 88
2020-01-28 04:00:00 11.6 29 Noroeste 57 Noroeste 0.3 -- -- 95
2020-01-28 03:00:00 13.1 20 Noroeste 36 Noroeste 0 -- -- 92
2020-01-28 02:00:00 12.8 0 Calma -- -- 0 -- -- 92
2020-01-28 01:00:00 13.6 0 Calma 11 Noroeste 0 -- -- 89
2020-01-28 00:00:00 14 6 Noroeste 30 Sudoeste 0 -- -- 78
2020-01-27 23:00:00 16 14 Sudoeste 38 Sudoeste 0 -- -- 60
2020-01-27 22:00:00 16.2 20 Sudoeste 49 Sudoeste 0 -- -- 58
2020-01-27 21:00:00 16.3 31 Sudoeste 52 Sudoeste 0 -- -- 56
2020-01-27 20:00:00 16.4 24 Sudoeste 45 Sudoeste 0 -- -- 57
2020-01-27 19:00:00 16 25 Sudoeste 49 Sudoeste 0 -- -- 58
2020-01-27 18:00:00 16.2 24 Sudoeste 40 Sudoeste 0 -- -- 59
2020-01-27 17:00:00 15.7 15 Sudoeste 30 Sudoeste 0 -- -- 59
2020-01-27 16:00:00 15.5 15 Sudoeste 28 Sudoeste 0 -- -- 59
2020-01-27 15:00:00 15 12 Sudoeste 26 Sudoeste 0 -- -- 61
2020-01-27 14:00:00 14.7 11 Sudoeste 27 Sudoeste 0 -- -- 62
2020-01-27 13:00:00 14.8 10 Sudoeste 40 Sudoeste 0 -- -- 58
2020-01-27 12:00:00 15.3 22 Sudoeste 51 Sur 0 -- -- 57
2020-01-27 11:00:00 15.1 35 Sudoeste 65 Sudoeste 0 -- -- 53
2020-01-27 10:00:00 14.8 37 Sudoeste 65 Sudoeste 0 -- -- 53
2020-01-27 09:00:00 14.2 30 Sur 60 Sudoeste 0 -- -- 53
2020-01-27 08:00:00 14.9 40 Sur 62 Sur 0 -- -- 54
2020-01-27 07:00:00 14.5 37 Sur 59 Sur 0 -- -- 56
2020-01-27 06:00:00 13.6 34 Sudoeste 58 Sur 0 -- -- 56
2020-01-27 05:00:00 13.8 34 Sur 54 Sur 0 -- -- 56
2020-01-27 04:00:00 13.7 31 Sur 49 Sur 0 -- -- 56
2020-01-27 03:00:00 12.8 25 Sur 38 Sur 0 -- -- 58
2020-01-27 02:00:00 12.5 18 Sur 37 Sudoeste 0 -- -- 59
2020-01-27 01:00:00 11.7 15 Sudoeste 27 Sudoeste 0 -- -- 60
2020-01-27 00:00:00 11.5 11 Sudoeste 35 Sudoeste 0 -- -- 61
2020-01-26 23:00:00 11.1 15 Sudoeste 29 Sur 0 -- -- 61
2020-01-26 22:00:00 11.2 15 Sur 31 Sur 0 -- -- 63
2020-01-26 21:00:00 10.3 9 Sur 21 Sur 0 -- -- 69
2020-01-26 20:00:00 10.3 0 Calma 12 Sur 0 -- -- 71
2020-01-26 19:00:00 10.2 0 Calma 13 Sudoeste 0 -- -- 74
2020-01-26 18:00:00 11.9 0 Calma 10 Este 0 -- -- 70
2020-01-26 17:00:00 13.5 9 Este 15 Nordeste 0 -- -- 68
2020-01-26 16:00:00 15.8 10 Este 14 Nordeste 0 -- -- 63
2020-01-26 15:00:00 14.7 11 Nordeste 18 Nordeste 0 -- -- 66
2020-01-26 14:00:00 15.9 0 Calma -- -- 0 -- -- 67
2020-01-26 13:00:00 16.2 0 Calma -- -- 0 -- -- 66
2020-01-26 12:00:00 14.2 0 Calma -- -- 0 -- -- 82
2020-01-26 11:00:00 11.8 0 Calma 13 Sur 0 -- -- 98
2020-01-26 10:00:00 9.3 9 Sur 14 Sur 0.1 -- -- 99
2020-01-26 09:00:00 7.8 11 Sur 14 Sur 0 -- -- 99
2020-01-26 08:00:00 8.7 6 Sudoeste 13 Sur 0 -- -- 99
2020-01-26 07:00:00 9.3 7 Sur 11 Sur 0 -- -- 99
2020-01-26 06:00:00 9.4 6 Sur 10 Sur 0 -- -- 99
2020-01-26 05:00:00 9.4 0 Calma 12 Sur 0 -- -- 98
2020-01-26 04:00:00 9.7 8 Sur 12 Sur 0.1 -- -- 98
2020-01-26 03:00:00 9.9 9 Sur 14 Sur 0.1 -- -- 98
2020-01-26 02:00:00 10 0 Calma -- -- 0.1 -- -- 97
2020-01-26 01:00:00 10.3 0 Calma 8 Sur 0 -- -- 97
2020-01-26 00:00:00 10.3 8 Sudoeste 10 Sur 0.4 -- -- 95
2020-01-25 23:00:00 11.1 0 Calma 7 Sudoeste 0.7 -- -- 92
2020-01-25 22:00:00 11.9 0 Calma 14 Sudoeste 1.2 -- -- 81
2020-01-25 21:00:00 12 0 Calma -- -- 0 -- -- 74
2020-01-25 20:00:00 12.2 0 Calma -- -- 0 -- -- 73
2020-01-25 19:00:00 12 0 Calma -- -- 0 -- -- 73
2020-01-25 18:00:00 13.3 0 Calma -- -- 0 -- -- 70
2020-01-25 17:00:00 13.4 0 Calma 9 Nordeste 0 -- -- 69
2020-01-25 16:00:00 13.9 0 Calma 19 Sur 0 -- -- 63
2020-01-25 15:00:00 14.5 13 Sur 26 Sudoeste 0 -- -- 58
2020-01-25 14:00:00 14.9 10 Sur 22 Sur 0 -- -- 57
2020-01-25 13:00:00 15.2 12 Sur 35 Sudoeste 0 -- -- 56
2020-01-25 12:00:00 16.5 20 Sur 40 Sur 0 -- -- 55
2020-01-25 11:00:00 14.5 17 Sur 36 Sudoeste 0 -- -- 59
2020-01-25 10:00:00 12.9 11 Sur 47 Sudeste 0 -- -- 62
2020-01-25 09:00:00 11.2 5 Sur 19 Sur 0 -- -- 64
2020-01-25 08:00:00 11.4 9 Sur 21 Sur 0 -- -- 63
2020-01-25 07:00:00 12.1 8 Sur 26 Sur 0 -- -- 63
2020-01-25 06:00:00 12.4 12 Sur 26 Sudoeste 0 -- -- 62
2020-01-25 05:00:00 12.9 14 Sur 33 Sudoeste 0 -- -- 60
2020-01-25 04:00:00 13.3 20 Sur 39 Sur 0 -- -- 60
2020-01-25 03:00:00 12.8 13 Sur 31 Sur 0 -- -- 61
2020-01-25 02:00:00 13 10 Sur 27 Sudoeste 0 -- -- 61
2020-01-25 01:00:00 13.4 10 Sur 22 Sur 0 -- -- 61
2020-01-25 00:00:00 13.3 8 Sur 31 Sudoeste 0 -- -- 60
2020-01-24 23:00:00 13.3 17 Sur 34 Sudoeste 0 -- -- 61
2020-01-24 22:00:00 13.2 17 Sur 32 Sur 0 -- -- 61
2020-01-24 21:00:00 13 17 Sur 28 Sudoeste 0 -- -- 60
2020-01-24 20:00:00 12.9 9 Sur 17 Sur 0 -- -- 61
2020-01-24 19:00:00 12.9 9 Sur 13 Sur 0 -- -- 61
2020-01-24 18:00:00 14.1 0 Calma 12 Sur 0 -- -- 57
2020-01-24 17:00:00 15.5 0 Calma 23 Sudoeste 0 -- -- 55
2020-01-24 16:00:00 15.8 13 Sur 25 Sur 0 -- -- 52
2020-01-24 15:00:00 16.7 14 Sur 28 Sudoeste 0 -- -- 53
2020-01-24 14:00:00 15.9 18 Sur 36 Sur 0 -- -- 54
2020-01-24 13:00:00 15.2 14 Sur 31 Sur 0 -- -- 56
2020-01-24 12:00:00 14.7 18 Sur 31 Sur 0 -- -- 56
2020-01-24 11:00:00 14.3 10 Sur 30 Sur 0 -- -- 61
2020-01-24 10:00:00 13.2 18 Sur 41 Sudoeste 0 -- -- 61
2020-01-24 09:00:00 12.6 20 Sur 46 Sur 0 -- -- 62
2020-01-24 08:00:00 12.9 27 Sur 48 Sur 0 -- -- 63
2020-01-24 07:00:00 12.2 30 Sur 58 Sur 0 -- -- 63
2020-01-24 06:00:00 12 28 Sur 54 Sur 0 -- -- 63
2020-01-24 05:00:00 12.5 33 Sur 59 Sur 0 -- -- 63
2020-01-24 04:00:00 12.1 32 Sur 51 Sudoeste 0 -- -- 64
2020-01-24 03:00:00 11.8 25 Sur 50 Sur 0 -- -- 65
2020-01-24 02:00:00 11.4 10 Sur 35 Sur 0 -- -- 65
2020-01-24 01:00:00 11.7 18 Sur 47 Sur 0 -- -- 64
2020-01-24 00:00:00 12 28 Sur 58 Sur 0 -- -- 66
2020-01-23 23:00:00 11.6 31 Sur 56 Sur 0 -- -- 66
2020-01-23 22:00:00 11.7 24 Sur 44 Sur 0 -- -- 67
2020-01-23 21:00:00 11.5 24 Sur 44 Sur 0 -- -- 67
2020-01-23 20:00:00 11.5 24 Sur 39 Sur 0 -- -- 69
2020-01-23 19:00:00 11.1 14 Sur 26 Sur 0 -- -- 73
2020-01-23 18:00:00 11 9 Sur 19 Sur 0 -- -- 85
2020-01-23 17:00:00 11.1 0 Calma 10 Sudeste 0 -- -- 88
2020-01-23 16:00:00 11.2 0 Calma -- -- 0 -- -- 91
2020-01-23 15:00:00 11.4 0 Calma -- -- 0.1 -- -- 95
2020-01-23 14:00:00 11.2 0 Calma -- -- 0 -- -- 98
2020-01-23 13:00:00 9.9 0 Calma -- -- 0 -- -- 98
2020-01-23 12:00:00 9.2 0 Calma 11 Sur 0 -- -- 98
2020-01-23 11:00:00 8 10 Sur 14 Sur 0.2 -- -- 98
2020-01-23 10:00:00 8 0 Calma -- -- 0.4 -- -- 98
2020-01-23 09:00:00 7.7 0 Calma -- -- 0.3 -- -- 96
2020-01-23 08:00:00 7.6 0 Calma -- -- 0.1 -- -- 96
2020-01-23 07:00:00 6.9 0 Calma 14 Sur 0 -- -- 96
2020-01-23 06:00:00 6.7 9 Sur 14 Sur 0 -- -- 96
2020-01-23 05:00:00 7.1 0 Calma -- -- 0 -- -- 95
2020-01-23 04:00:00 7.1 0 Calma 8 Sudoeste 0 -- -- 94
2020-01-23 03:00:00 7.4 3 Sudoeste 11 Sudoeste 0 -- -- 93
2020-01-23 02:00:00 8.1 0 Calma -- -- 0 -- -- 93
2020-01-23 01:00:00 8.5 0 Calma 9 Sur 0 -- -- 93
2020-01-23 00:00:00 8.4 0 Calma 12 Sudoeste 0 -- -- 93
2020-01-22 23:00:00 8.3 7 Sudoeste 10 Sur 0 -- -- 92
2020-01-22 22:00:00 8.3 0 Calma -- -- 0 -- -- 92
2020-01-22 21:00:00 8.7 0 Calma -- -- 0 -- -- 91
2020-01-22 20:00:00 8.9 0 Calma -- -- 0 -- -- 90
2020-01-22 19:00:00 9.3 0 Calma -- -- 0 -- -- 87
2020-01-22 18:00:00 10.4 0 Calma -- -- 0 -- -- 85
2020-01-22 17:00:00 10.8 0 Calma 13 Noroeste 0 -- -- 84
2020-01-22 16:00:00 11.2 4 Noroeste 13 Norte 0 -- -- 80
2020-01-22 15:00:00 12.5 3 Noroeste 16 Noroeste 0 -- -- 78
2020-01-22 14:00:00 10.2 0 Calma -- -- 0 -- -- 90
2020-01-22 13:00:00 9 0 Calma -- -- 0 -- -- 89
2020-01-22 12:00:00 8.3 0 Calma -- -- 0 -- -- 90
2020-01-22 11:00:00 7.8 0 Calma -- -- 0 -- -- 91
2020-01-22 10:00:00 7.5 0 Calma -- -- 0 -- -- 91
2020-01-22 09:00:00 7.1 0 Calma -- -- 0 -- -- 90
2020-01-22 08:00:00 7.5 0 Calma -- -- 0 -- -- 89
2020-01-22 07:00:00 7.7 0 Calma -- -- 0 -- -- 87
2020-01-22 06:00:00 7.9 0 Calma -- -- 0 -- -- 86
2020-01-22 05:00:00 8.4 0 Calma -- -- 0 -- -- 85
2020-01-22 04:00:00 8.5 0 Calma 10 Este 0 -- -- 84
2020-01-22 03:00:00 8.9 0 Calma 19 Nordeste 0 -- -- 84
2020-01-22 02:00:00 7.8 0 Calma 11 Sur 0 -- -- 89
2020-01-22 01:00:00 6.9 7 Sur 13 Sudoeste 0 -- -- 87
2020-01-22 00:00:00 6.8 9 Sur 13 Sudoeste 0 -- -- 87
2020-01-21 23:00:00 6.8 0 Calma 10 Sur 0 -- -- 86
2020-01-21 22:00:00 6.4 0 Calma 10 Sudoeste 0 -- -- 85
2020-01-21 21:00:00 6.4 0 Calma -- -- 0 -- -- 83
2020-01-21 20:00:00 6.4 0 Calma 12 Sur 0 -- -- 82
2020-01-21 19:00:00 6.2 0 Calma -- -- 0 -- -- 82
2020-01-21 18:00:00 6.4 0 Calma -- -- 0 -- -- 82
2020-01-21 17:00:00 6.2 0 Calma -- -- 0 -- -- 80
2020-01-21 16:00:00 6.1 0 Calma -- -- 0 -- -- 80
2020-01-21 15:00:00 6.3 0 Calma 17 Este 0 -- -- 80
2020-01-21 14:00:00 6.1 5 Sudeste 21 Sudeste 0 -- -- 80
2020-01-21 13:00:00 6.1 8 Este 17 Este 0 -- -- 80
2020-01-21 12:00:00 6.1 8 Este 14 Este 0 -- -- 80
2020-01-21 11:00:00 6.4 0 Calma 14 Este 0 -- -- 82
2020-01-21 10:00:00 5.6 5 Este 18 Este 0 -- -- 82
2020-01-21 09:00:00 4.9 0 Calma 10 Sur 0 -- -- 83
2020-01-21 08:00:00 5.2 0 Calma 22 Este 0 -- -- 81
2020-01-21 07:00:00 5.4 8 Este 20 Este 0 -- -- 83
2020-01-21 06:00:00 3.7 0 Calma 15 Sudoeste 0 -- -- 89
2020-01-21 05:00:00 2.4 9 Sudoeste 14 Sudoeste 0 -- -- 91
2020-01-21 04:00:00 2.1 9 Sur 15 Sudoeste 0 -- -- 89
2020-01-21 03:00:00 2.7 9 Sudoeste 13 Sudoeste 0 -- -- 87
2020-01-21 02:00:00 3.3 9 Sudoeste 13 Sur 0 -- -- 84
2020-01-21 01:00:00 3.6 3 Sur 12 Sur 0 -- -- 83
2020-01-21 00:00:00 3.7 0 Calma 10 Sudoeste 0 -- -- 82
2020-01-20 23:00:00 4.3 0 Calma 14 Sur 0 -- -- 79
2020-01-20 22:00:00 5.1 0 Calma 15 Sur 0 -- -- 79
2020-01-20 21:00:00 5.5 5 Sur 13 Sur 0 -- -- 78
2020-01-20 20:00:00 5.5 7 Sur 14 Sudeste 0 -- -- 77
2020-01-20 19:00:00 5.9 0 Calma -- -- 0 -- -- 76
2020-01-20 18:00:00 6.1 0 Calma -- -- 0 -- -- 74
2020-01-20 17:00:00 6.9 2 Nordeste 18 Norte 0 -- -- 72
2020-01-20 16:00:00 6.9 11 Nordeste 22 Norte 0 -- -- 70
2020-01-20 15:00:00 6.8 8 Nordeste 15 Norte 0 -- -- 70
2020-01-20 14:00:00 6.8 8 Nordeste 19 Nordeste 0 -- -- 74
2020-01-20 13:00:00 6.3 0 Calma 20 Nordeste 0 -- -- 73
2020-01-20 12:00:00 6.4 12 Nordeste 29 Este 0 -- -- 73
2020-01-20 11:00:00 4.8 13 Este 25 Sudeste 0 -- -- 77
2020-01-20 10:00:00 4.6 14 Este 26 Sudeste 0 -- -- 76
2020-01-20 09:00:00 4.3 9 Sudeste 25 Este 0 -- -- 77
2020-01-20 08:00:00 3.6 10 Sur 19 Sur 0 -- -- 75
2020-01-20 07:00:00 4.1 10 Sur 23 Sudeste 0 -- -- 73
2020-01-20 06:00:00 5 11 Sudeste 35 Sudeste 0 -- -- 73
2020-01-20 05:00:00 6.4 22 Este 37 Este 0 -- -- 72
2020-01-20 04:00:00 6.6 20 Este 39 Nordeste 0 -- -- 70
2020-01-20 03:00:00 6.4 15 Este 47 Nordeste 0 -- -- 68
2020-01-20 02:00:00 7.5 25 Nordeste 57 Nordeste 0 -- -- 65
2020-01-20 01:00:00 7.2 26 Este 56 Nordeste 0 -- -- 63
2020-01-20 00:00:00 7.6 27 Nordeste 61 Nordeste 0 -- -- 64
2020-01-19 23:00:00 7.8 30 Este 64 Nordeste 0 -- -- 62
2020-01-19 22:00:00 8.4 30 Nordeste 71 Nordeste 0 -- -- 64
2020-01-19 21:00:00 9.3 44 Nordeste 70 Nordeste 0 -- -- 64
2020-01-19 20:00:00 9.3 40 Nordeste 64 Nordeste 0 -- -- 59
2020-01-19 19:00:00 9.7 44 Nordeste 63 Nordeste 0 -- -- 56
2020-01-19 18:00:00 9.6 39 Nordeste 61 Nordeste 0 -- -- 57
2020-01-19 17:00:00 9.7 42 Nordeste 60 Nordeste 0 -- -- 63
2020-01-19 16:00:00 9.6 40 Nordeste 53 Nordeste 0 -- -- 65
2020-01-19 15:00:00 9.5 31 Nordeste 50 Nordeste 0 -- -- 67
2020-01-19 14:00:00 9.9 28 Nordeste 46 Norte 0 -- -- 67
2020-01-19 13:00:00 9.5 24 Nordeste 47 Nordeste 0 -- -- 70
2020-01-19 12:00:00 8.8 31 Nordeste 42 Nordeste 0 -- -- 71
2020-01-19 11:00:00 9.3 15 Nordeste 40 Nordeste 0 -- -- 72
2020-01-19 10:00:00 8.8 17 Nordeste 44 Nordeste 0 -- -- 75
2020-01-19 09:00:00 8.7 30 Nordeste 42 Nordeste 0 -- -- 78
2020-01-19 08:00:00 9 13 Este 28 Este 0 -- -- 82
2020-01-19 07:00:00 8.4 12 Este 27 Este 0 -- -- 88
2020-01-19 06:00:00 8.2 14 Este 31 Sudeste 0 -- -- 95
2020-01-19 05:00:00 8.2 18 Este 48 Nordeste 0.4 -- -- 98
2020-01-19 04:00:00 9.4 11 Este 39 Nordeste 0.2 -- -- 97
2020-01-19 03:00:00 9.7 28 Norte 45 Norte 0.3 -- -- 98
2020-01-19 02:00:00 10.3 15 Noroeste 24 Norte 0.5 -- -- 98
2020-01-19 01:00:00 9.3 0 Calma 17 Noroeste 0.8 -- -- 97
2020-01-19 00:00:00 8.9 6 Sur 12 Sur 1.1 -- -- 97
2020-01-18 23:00:00 9 9 Sur 18 Sur 0.6 -- -- 96
2020-01-18 22:00:00 9.5 9 Sur 19 Sur 1.4 -- -- 94
2020-01-18 21:00:00 9.8 7 Sur 17 Sur 0.7 -- -- 86
2020-01-18 20:00:00 10.6 5 Oeste 35 Oeste 0.3 -- -- 79
2020-01-18 19:00:00 11.1 10 Oeste 41 Sudoeste 0.6 -- -- 78
2020-01-18 18:00:00 13.4 26 Sur 50 Sur 0 -- -- 62
2020-01-18 17:00:00 13.8 23 Sur 60 Sur 0 -- -- 57
2020-01-18 16:00:00 16.1 20 Sur 51 Sur 0 -- -- 47
2020-01-18 15:00:00 17 23 Sur 47 Sur 0 -- -- 45
2020-01-18 14:00:00 16.2 17 Sur 38 Sudoeste 0 -- -- 48
2020-01-18 13:00:00 14.3 19 Sur 48 Sur 0 -- -- 49
2020-01-18 12:00:00 15.4 21 Sur 39 Sur 0 -- -- 47
2020-01-18 11:00:00 14.1 18 Sur 36 Sur 0 -- -- 53
2020-01-18 10:00:00 11.2 13 Sur 26 Sudeste 0 -- -- 63
2020-01-18 09:00:00 10.3 16 Sur 27 Sudeste 0 -- -- 71
2020-01-18 08:00:00 8.5 9 Sur 19 Sur 0 -- -- 80
2020-01-18 07:00:00 9.1 7 Sudoeste 16 Sudoeste 0 -- -- 79
2020-01-18 06:00:00 8.5 6 Sur 14 Sur 0 -- -- 84
2020-01-18 05:00:00 8 8 Sur 14 Sur 0 -- -- 89
2020-01-18 04:00:00 7.8 13 Sur 17 Sur 0 -- -- 92
2020-01-18 03:00:00 7.5 10 Sur 14 Sur 0 -- -- 93
2020-01-18 02:00:00 7.1 9 Sur 13 Sudoeste 0 -- -- 93
2020-01-18 01:00:00 7.5 8 Sur 13 Sur 0 -- -- 93
2020-01-18 00:00:00 7.8 10 Sur 13 Sur 0 -- -- 93